Raleigh-Durham International Airport

Airport
ICAO code: 
KRDU
Summary
ICAO Region: 
NAM
Territory: 
Location: 
Raleigh, North Carolina,
Coordinates: 
Aerial View: 
35° 52' 36.203" N, 78° 47' 35.009" W
Airport LOS: 
Parallel Runway Operation
Metar
Observation
KRDU 021551Z 23008KT 10SM OVC250 16/07 A3003 RMK AO2 SLP167 T01560067
Station
Raleigh / Durham, Raleigh-Durham International Airport
Date/Time
2021-12-02 15:51:00
Wind direction
230°
Wind speed
08 kts
Lowest cloud amount
overcast
Temperature
15.6°C
Dew point
6.7°C
Humidity
55%
Weather condition
n/a

Description

Raleigh–Durham International Airport is a public use airport located 7 km northeast of the town of Morrisville in Wake County, North Carolina.

Climatology

Humid “subtropical” climate (Köppen climate classification Cfa) - characterized by hot, humid summers and cool winters. Significant amounts of precipitation occur in all seasons in most areas. Winter rainfall (and sometimes snowfall) is associated with large storms that the westerlies steer from west to east. Most summer rainfall occurs during thunderstorms and occasional tropical storms (hurricanes).

Runways

Designator Length Width Surface Rops
14/32 1088 30 ASP Yes/Yes
05R/23L 2286 46 ASP Yes/Yes
05L/23R 3048 46 CON Yes/Yes
Airport map: 
Aerial View: 

SKYbrary Partners:

Safety knowledge contributed by: